createdAt,value
2022-10-03T00:01:06.053Z,56.59
2022-10-03T00:03:42.758Z,56.39
2022-10-03T00:06:35.891Z,57.04
2022-10-03T00:09:44.757Z,56.87
2022-10-03T00:12:43.065Z,57.09
2022-10-03T00:15:37.512Z,57.36
2022-10-03T00:18:23.854Z,57.26
2022-10-03T00:21:03.812Z,57.59
2022-10-03T00:23:36.900Z,57.53
2022-10-03T00:26:30.987Z,57.76
2022-10-03T00:29:07.617Z,57.79
2022-10-03T00:31:52.305Z,58.13
2022-10-03T00:35:03.427Z,57.97
2022-10-03T00:37:41.644Z,58.00
2022-10-03T00:40:30.857Z,57.73
2022-10-03T00:43:07.204Z,57.96
2022-10-03T00:46:26.173Z,57.92
2022-10-03T00:48:53.856Z,57.89
2022-10-03T00:51:45.617Z,58.27
2022-10-03T00:54:21.951Z,58.30
2022-10-03T00:57:07.587Z,57.94
2022-10-03T01:00:09.596Z,58.08
2022-10-03T01:02:39.846Z,57.89
2022-10-03T01:05:19.790Z,57.84
2022-10-03T01:08:24.660Z,58.15
2022-10-03T01:11:16.809Z,58.01
2022-10-03T01:14:16.029Z,57.94
2022-10-03T01:16:55.519Z,58.02
2022-10-03T01:19:41.543Z,58.07
2022-10-03T01:22:49.109Z,58.21
2022-10-03T01:25:28.453Z,58.24
2022-10-03T01:28:26.379Z,58.20
2022-10-03T01:31:05.047Z,58.20
2022-10-03T01:34:07.844Z,58.09
2022-10-03T01:36:50.131Z,58.08
2022-10-03T01:39:43.683Z,58.38
2022-10-03T01:42:20.704Z,58.32
2022-10-03T01:45:14.280Z,58.71
2022-10-03T01:47:51.917Z,58.38
2022-10-03T01:50:31.437Z,58.32
2022-10-03T01:53:08.078Z,58.59
2022-10-03T01:56:29.481Z,58.55
2022-10-03T01:59:14.435Z,58.45
2022-10-03T02:01:59.822Z,58.45
2022-10-03T02:04:36.292Z,58.48
2022-10-03T02:07:11.076Z,58.57
2022-10-03T02:10:19.817Z,58.82
2022-10-03T02:12:59.173Z,58.54
2022-10-03T02:16:15.921Z,58.68
2022-10-03T02:18:53.009Z,59.02
2022-10-03T02:21:27.567Z,58.71
2022-10-03T02:24:36.333Z,59.01
2022-10-03T02:27:42.493Z,58.96
2022-10-03T02:30:21.916Z,58.80
2022-10-03T02:33:19.848Z,58.91
2022-10-03T02:36:33.963Z,58.84
2022-10-03T02:39:39.763Z,58.95
2022-10-03T02:42:44.591Z,58.70
2022-10-03T02:45:47.525Z,58.65
2022-10-03T02:48:58.801Z,58.66
2022-10-03T02:51:52.462Z,58.79
2022-10-03T02:54:43.009Z,58.92
2022-10-03T02:57:32.399Z,58.76
2022-10-03T03:00:21.873Z,58.77
2022-10-03T03:03:01.635Z,58.35
2022-10-03T03:05:41.423Z,58.45
2022-10-03T03:08:41.894Z,58.50
2022-10-03T03:11:27.969Z,58.55
2022-10-03T03:14:16.327Z,58.33
2022-10-03T03:17:08.990Z,58.42
2022-10-03T03:20:08.605Z,58.08
2022-10-03T03:22:39.205Z,58.12
2022-10-03T03:25:28.241Z,58.07
2022-10-03T03:28:27.995Z,58.22
2022-10-03T03:31:04.364Z,57.93
2022-10-03T03:33:54.525Z,58.15
2022-10-03T03:37:02.669Z,57.92
2022-10-03T03:39:59.907Z,57.83
2022-10-03T03:43:02.747Z,57.73
2022-10-03T03:46:06.839Z,57.91
2022-10-03T03:49:00.253Z,57.88
2022-10-03T03:52:00.540Z,57.73
2022-10-03T03:54:41.266Z,57.49
2022-10-03T03:57:26.605Z,57.57
2022-10-03T04:00:04.752Z,57.35
2022-10-03T04:03:09.522Z,57.62
2022-10-03T04:05:58.194Z,57.58
2022-10-03T04:08:45.059Z,57.55
2022-10-03T04:11:38.056Z,57.40
2022-10-03T04:14:28.353Z,57.41
2022-10-03T04:17:43.750Z,56.94
2022-10-03T04:20:44.451Z,56.94
2022-10-03T04:23:23.724Z,57.02
2022-10-03T04:26:18.462Z,56.84
2022-10-03T04:29:04.832Z,56.74
2022-10-03T04:31:52.707Z,56.74
2022-10-03T04:34:45.464Z,56.80
2022-10-03T04:37:38.096Z,56.60
2022-10-03T04:40:28.454Z,56.68
2022-10-03T04:43:16.104Z,56.81
2022-10-03T04:45:45.893Z,56.59
2022-10-03T04:48:37.948Z,56.81
2022-10-03T04:51:17.167Z,56.74
2022-10-03T04:54:00.876Z,56.87
2022-10-03T04:57:02.318Z,57.06
2022-10-03T04:59:57.890Z,56.99
2022-10-03T05:02:37.003Z,56.79
2022-10-03T05:05:42.236Z,57.09
2022-10-03T05:08:17.428Z,57.02
2022-10-03T05:11:19.664Z,57.29
2022-10-03T05:14:09.025Z,57.29
2022-10-03T05:16:48.776Z,57.45
2022-10-03T05:19:37.070Z,57.36
2022-10-03T05:22:35.675Z,57.36
2022-10-03T05:25:47.182Z,57.18
2022-10-03T05:28:37.115Z,57.45
2022-10-03T05:31:37.681Z,57.10
2022-10-03T05:34:30.053Z,57.36
2022-10-03T05:37:15.869Z,57.32
2022-10-03T05:39:46.252Z,56.91
2022-10-03T05:42:35.131Z,57.18
2022-10-03T05:45:24.620Z,57.12
2022-10-03T05:48:09.049Z,56.92
2022-10-03T05:51:09.407Z,56.79
2022-10-03T05:53:57.710Z,56.84
2022-10-03T05:56:43.901Z,57.25
2022-10-03T05:59:29.407Z,57.21
2022-10-03T06:02:21.702Z,57.12
2022-10-03T06:05:26.659Z,57.28
2022-10-03T06:08:35.418Z,57.66
2022-10-03T06:11:12.141Z,57.28
2022-10-03T06:13:54.468Z,57.32
2022-10-03T06:16:42.108Z,57.67
2022-10-03T06:19:40.304Z,57.72
2022-10-03T06:22:31.979Z,57.84
2022-10-03T06:25:37.037Z,57.88
2022-10-03T06:28:18.591Z,57.85
2022-10-03T06:31:32.241Z,57.78
2022-10-03T06:34:35.506Z,58.03
2022-10-03T06:37:20.485Z,58.58
2022-10-03T06:40:09.594Z,58.38
2022-10-03T06:43:04.112Z,58.51
2022-10-03T06:46:05.427Z,59.03
2022-10-03T06:49:12.521Z,58.85
2022-10-03T06:51:52.377Z,58.82
2022-10-03T06:54:41.244Z,59.12
2022-10-03T06:57:37.831Z,59.03
2022-10-03T07:00:20.552Z,58.84
2022-10-03T07:02:51.040Z,59.18
2022-10-03T07:05:40.981Z,59.11
2022-10-03T07:08:27.108Z,59.30
2022-10-03T07:11:32.668Z,59.12
2022-10-03T07:14:10.095Z,59.25
2022-10-03T07:16:56.490Z,59.58
2022-10-03T07:19:57.707Z,59.84
2022-10-03T07:22:59.783Z,59.89
2022-10-03T07:26:11.161Z,59.86
2022-10-03T07:28:53.529Z,59.47
2022-10-03T07:31:48.383Z,59.91
2022-10-03T07:34:24.901Z,59.69
2022-10-03T07:37:43.187Z,59.80
2022-10-03T07:40:40.057Z,59.82
2022-10-03T07:43:47.804Z,60.24
2022-10-03T07:46:40.888Z,60.10
2022-10-03T07:49:26.551Z,60.24
2022-10-03T07:52:23.669Z,60.46
2022-10-03T07:55:02.792Z,61.16
2022-10-03T07:57:42.408Z,61.00
2022-10-03T08:00:35.262Z,61.33
2022-10-03T08:03:33.616Z,61.86
2022-10-03T08:06:23.947Z,62.54
2022-10-03T08:09:00.815Z,62.23
2022-10-03T08:12:05.876Z,63.37
2022-10-03T08:14:58.912Z,63.12
2022-10-03T08:17:58.784Z,63.02
2022-10-03T08:20:46.742Z,62.87
2022-10-03T08:23:36.207Z,63.70
2022-10-03T08:26:15.634Z,64.10
2022-10-03T08:28:50.592Z,64.32
2022-10-03T08:31:45.142Z,65.04
2022-10-03T08:34:34.014Z,65.44
2022-10-03T08:37:34.099Z,66.00
2022-10-03T08:40:19.848Z,65.70
2022-10-03T08:43:09.102Z,65.36
2022-10-03T08:49:24.128Z,65.45
2022-10-03T08:52:33.052Z,65.97
2022-10-03T08:55:23.440Z,66.02
2022-10-03T08:58:20.806Z,66.29
2022-10-03T09:00:54.533Z,66.08
2022-10-03T09:03:57.427Z,66.24
2022-10-03T09:07:05.479Z,65.95
2022-10-03T09:09:54.350Z,66.15
2022-10-03T09:12:42.947Z,66.35
2022-10-03T09:15:19.460Z,66.42
2022-10-03T09:18:24.430Z,66.01
2022-10-03T09:21:32.566Z,65.52
2022-10-03T09:24:36.403Z,65.19
2022-10-03T09:27:27.315Z,65.00
2022-10-03T09:30:42.225Z,65.15
2022-10-03T09:33:18.044Z,64.92
2022-10-03T09:35:59.865Z,65.23
2022-10-03T09:39:08.848Z,64.91
2022-10-03T09:41:47.367Z,65.06
2022-10-03T09:44:41.175Z,65.27
2022-10-03T09:47:33.694Z,65.20
2022-10-03T09:50:36.816Z,65.58
2022-10-03T09:53:36.499Z,65.38
2022-10-03T09:56:32.121Z,65.56
2022-10-03T09:59:24.632Z,65.68
2022-10-03T10:02:01.454Z,66.07
2022-10-03T10:04:55.418Z,66.41
2022-10-03T10:07:57.497Z,66.73
2022-10-03T10:10:27.591Z,66.70
2022-10-03T10:13:19.793Z,67.46
2022-10-03T10:16:37.872Z,67.36
2022-10-03T10:19:34.731Z,68.41
2022-10-03T10:22:40.823Z,67.74
2022-10-03T10:25:26.292Z,67.96
2022-10-03T10:27:54.918Z,67.92
2022-10-03T10:30:40.595Z,68.61
2022-10-03T10:33:29.712Z,68.67
2022-10-03T10:36:12.424Z,69.08
2022-10-03T10:39:07.440Z,69.31
2022-10-03T10:41:59.511Z,69.86
2022-10-03T10:44:52.175Z,70.39
2022-10-03T10:47:43.882Z,70.29
2022-10-03T10:50:47.654Z,70.76
2022-10-03T10:53:44.311Z,71.08
2022-10-03T10:56:56.217Z,71.25
2022-10-03T10:59:42.560Z,71.18
2022-10-03T11:02:30.317Z,71.63
2022-10-03T11:05:42.738Z,72.26
2022-10-03T11:08:42.366Z,72.37
2022-10-03T11:11:52.381Z,73.03
2022-10-03T11:14:28.850Z,72.23
2022-10-03T11:17:16.045Z,72.44
2022-10-03T11:19:46.115Z,72.33
2022-10-03T11:22:51.210Z,72.43
2022-10-03T11:25:38.178Z,72.26
2022-10-03T11:28:46.864Z,72.56
2022-10-03T11:31:51.898Z,72.69
2022-10-03T11:35:00.024Z,72.61
2022-10-03T11:38:12.140Z,72.77
2022-10-03T11:40:53.227Z,72.25
2022-10-03T11:44:06.222Z,72.61
2022-10-03T11:47:08.546Z,71.94
2022-10-03T11:49:45.107Z,71.77
2022-10-03T11:52:39.743Z,71.95
2022-10-03T11:55:25.620Z,71.60
2022-10-03T11:58:11.589Z,71.73
2022-10-03T12:00:43.255Z,71.51
2022-10-03T12:03:30.350Z,71.29
2022-10-03T12:06:27.822Z,70.95
2022-10-03T12:09:17.969Z,70.71
2022-10-03T12:12:00.353Z,70.85
2022-10-03T12:14:50.652Z,70.80
2022-10-03T12:17:37.533Z,70.92
2022-10-03T12:20:16.074Z,70.39
2022-10-03T12:23:08.710Z,70.77
2022-10-03T12:25:40.969Z,70.56
2022-10-03T12:28:25.263Z,70.38
2022-10-03T12:31:02.019Z,70.65
2022-10-03T12:34:09.766Z,70.65
2022-10-03T12:37:01.517Z,70.45
2022-10-03T12:40:01.626Z,70.42
2022-10-03T12:42:47.591Z,70.36
2022-10-03T12:45:21.049Z,70.38
2022-10-03T12:48:07.797Z,69.75
2022-10-03T12:50:57.332Z,69.48
2022-10-03T12:53:32.020Z,69.12
2022-10-03T12:56:31.215Z,68.88
2022-10-03T12:59:19.578Z,68.65
2022-10-03T13:02:03.332Z,68.55
2022-10-03T13:04:44.025Z,68.59
2022-10-03T13:07:29.805Z,68.11
2022-10-03T13:10:05.253Z,67.81
